createdAt,value
2023-02-08T00:00:37.049Z,102127.48
2023-02-08T00:03:43.514Z,102131.58
2023-02-08T00:06:49.576Z,102119.50
2023-02-08T00:09:56.326Z,102109.67
2023-02-08T00:13:02.631Z,102123.80
2023-02-08T00:16:09.601Z,102132.56
2023-02-08T00:19:15.565Z,102127.95
2023-02-08T00:22:21.810Z,102121.98
2023-02-08T00:25:26.930Z,102127.47
2023-02-08T00:28:34.697Z,102123.29
2023-02-08T00:31:40.372Z,102119.66
2023-02-08T00:34:47.186Z,102126.78
2023-02-08T00:37:53.040Z,102127.84
2023-02-08T00:40:59.568Z,102135.97
2023-02-08T00:44:04.360Z,102139.38
2023-02-08T00:47:10.270Z,102143.56
2023-02-08T00:50:16.455Z,102145.97
2023-02-08T00:53:22.505Z,102152.03
2023-02-08T00:56:29.088Z,102134.64
2023-02-08T00:59:34.798Z,102142.22
2023-02-08T01:02:33.567Z,102147.08
2023-02-08T01:05:39.718Z,102147.20
2023-02-08T01:08:44.613Z,102145.28
2023-02-08T01:11:52.618Z,102145.28
2023-02-08T01:14:58.966Z,102149.61
2023-02-08T01:18:09.671Z,102151.32
2023-02-08T01:21:28.092Z,102144.33
2023-02-08T01:24:33.528Z,102148.82
2023-02-08T01:27:39.939Z,102151.95
2023-02-08T01:30:45.596Z,102148.58
2023-02-08T01:33:51.444Z,102151.58
2023-02-08T01:36:59.067Z,102161.56
2023-02-08T01:40:05.602Z,102157.61
2023-02-08T01:43:11.326Z,102167.47
2023-02-08T01:46:17.187Z,102157.44
2023-02-08T01:49:39.684Z,102169.70
2023-02-08T01:52:47.136Z,102167.36
2023-02-08T01:55:57.024Z,102176.11
2023-02-08T01:59:05.055Z,102176.68
2023-02-08T02:02:11.482Z,102171.42
2023-02-08T02:05:18.316Z,102185.59
2023-02-08T02:08:25.751Z,102195.64
2023-02-08T02:11:30.433Z,102186.92
2023-02-08T02:14:35.740Z,102190.23
2023-02-08T02:17:41.183Z,102188.14
2023-02-08T02:21:37.173Z,102194.30
2023-02-08T02:25:22.529Z,102204.66
2023-02-08T02:29:02.984Z,102205.38
2023-02-08T02:32:42.875Z,102207.91
2023-02-08T02:36:22.425Z,102214.44
2023-02-08T02:39:45.808Z,102222.10
2023-02-08T02:43:21.775Z,102224.49
2023-02-08T02:46:37.928Z,102227.80
2023-02-08T02:50:03.210Z,102227.56
2023-02-08T02:53:17.646Z,102223.88
2023-02-08T02:56:38.108Z,102233.20
2023-02-08T02:59:43.689Z,102228.48
2023-02-08T03:02:51.905Z,102226.18
2023-02-08T03:05:57.200Z,102232.52
2023-02-08T03:09:26.948Z,102240.64
2023-02-08T03:13:08.358Z,102242.52
2023-02-08T03:16:18.441Z,102246.97
2023-02-08T03:19:30.408Z,102254.44
2023-02-08T03:22:49.258Z,102254.65
2023-02-08T03:26:09.746Z,102253.17
2023-02-08T03:29:39.902Z,102265.90
2023-02-08T03:33:21.296Z,102258.89
2023-02-08T03:36:40.634Z,102256.26
2023-02-08T03:39:45.921Z,102259.53
2023-02-08T03:42:52.643Z,102255.09
2023-02-08T03:46:11.840Z,102255.45
2023-02-08T03:49:20.966Z,102273.22
2023-02-08T03:52:26.523Z,102267.73
2023-02-08T03:55:39.361Z,102294.59
2023-02-08T03:59:09.992Z,102289.59
2023-02-08T04:02:18.877Z,102293.60
2023-02-08T04:05:24.458Z,102301.50
2023-02-08T04:08:29.861Z,102314.92
2023-02-08T04:11:35.997Z,102307.58
2023-02-08T04:14:41.990Z,102310.68
2023-02-08T04:17:48.262Z,102337.72
2023-02-08T04:20:53.895Z,102325.22
2023-02-08T04:23:59.201Z,102337.27
2023-02-08T04:27:06.123Z,102335.55
2023-02-08T04:30:11.231Z,102340.83
2023-02-08T04:33:18.880Z,102341.55
2023-02-08T04:36:24.830Z,102343.69
2023-02-08T04:39:31.120Z,102351.27
2023-02-08T04:42:37.348Z,102358.16
2023-02-08T04:45:43.408Z,102360.77
2023-02-08T04:48:48.893Z,102366.63
2023-02-08T04:51:53.855Z,102369.25
2023-02-08T04:54:59.809Z,102369.67
2023-02-08T04:58:05.719Z,102367.03
2023-02-08T05:01:10.735Z,102374.55
2023-02-08T05:04:16.685Z,102377.27
2023-02-08T05:07:22.699Z,102386.58
2023-02-08T05:10:27.680Z,102384.47
2023-02-08T05:13:34.264Z,102386.55
2023-02-08T05:16:39.005Z,102386.98
2023-02-08T05:19:44.067Z,102386.18
2023-02-08T05:22:50.734Z,102402.98
2023-02-08T05:25:57.188Z,102401.95
2023-02-08T05:29:03.817Z,102406.11
2023-02-08T05:32:10.555Z,102425.12
2023-02-08T05:35:16.347Z,102417.16
2023-02-08T05:38:22.120Z,102421.66
2023-02-08T05:41:28.378Z,102416.69
2023-02-08T05:44:33.273Z,102428.69
2023-02-08T05:47:38.479Z,102441.03
2023-02-08T05:50:44.202Z,102438.35
2023-02-08T05:53:50.353Z,102441.91
2023-02-08T05:56:56.509Z,102429.84
2023-02-08T06:00:01.378Z,102434.16
2023-02-08T06:03:10.296Z,102431.49
2023-02-08T06:06:18.820Z,102440.13
2023-02-08T06:09:23.977Z,102428.64
2023-02-08T06:12:29.753Z,102428.56
2023-02-08T06:15:35.182Z,102435.11
2023-02-08T06:18:39.694Z,102443.36
2023-02-08T06:21:44.474Z,102445.12
2023-02-08T06:24:50.007Z,102445.08
2023-02-08T06:27:57.519Z,102453.41
2023-02-08T06:31:06.547Z,102467.20
2023-02-08T06:34:12.187Z,102464.41
2023-02-08T06:37:18.112Z,102468.03
2023-02-08T06:40:23.918Z,102473.42
2023-02-08T06:43:29.793Z,102473.61
2023-02-08T06:46:35.457Z,102472.70
2023-02-08T06:49:42.091Z,102475.83
2023-02-08T06:52:48.015Z,102470.52
2023-02-08T06:55:54.708Z,102482.05
2023-02-08T06:59:01.065Z,102476.46
2023-02-08T07:02:06.252Z,102476.77
2023-02-08T07:05:11.844Z,102501.64
2023-02-08T07:08:18.588Z,102491.41
2023-02-08T07:11:28.981Z,102485.53
2023-02-08T07:14:34.729Z,102490.09
2023-02-08T07:17:41.066Z,102493.56
2023-02-08T07:20:46.639Z,102505.18
2023-02-08T07:23:54.016Z,102491.88
2023-02-08T07:26:59.898Z,102504.84
2023-02-08T07:30:06.116Z,102510.64
2023-02-08T07:33:13.009Z,102511.70
2023-02-08T07:36:20.595Z,102519.49
2023-02-08T07:39:25.678Z,102529.19
2023-02-08T07:42:31.595Z,102521.53
2023-02-08T07:45:40.807Z,102527.72
2023-02-08T07:48:40.521Z,102523.95
2023-02-08T07:51:26.796Z,102532.73
2023-02-08T07:54:19.687Z,102554.97
2023-02-08T07:57:12.173Z,102534.39
2023-02-08T08:00:18.967Z,102551.84
2023-02-08T08:03:24.671Z,102546.02
2023-02-08T08:06:30.565Z,102540.99
2023-02-08T08:09:36.897Z,102536.44
2023-02-08T08:12:46.352Z,102537.73
2023-02-08T08:15:54.935Z,102549.03
2023-02-08T08:19:00.374Z,102552.25
2023-02-08T08:22:06.148Z,102546.66
2023-02-08T08:25:11.739Z,102549.74
2023-02-08T08:28:18.501Z,102550.62
2023-02-08T08:31:33.562Z,102548.87
2023-02-08T08:34:38.813Z,102554.75
2023-02-08T08:37:39.185Z,102542.86
2023-02-08T08:40:45.660Z,102547.86
2023-02-08T08:43:51.882Z,102545.77
2023-02-08T08:46:57.089Z,102530.61
2023-02-08T08:50:02.579Z,102531.58
2023-02-08T08:53:08.128Z,102531.64
2023-02-08T08:56:16.874Z,102527.41
2023-02-08T08:59:25.189Z,102540.12
2023-02-08T09:02:30.866Z,102528.28
2023-02-08T09:05:41.344Z,102558.24
2023-02-08T09:08:45.795Z,102528.51
2023-02-08T09:11:52.743Z,102537.27
2023-02-08T09:14:59.458Z,102531.27
2023-02-08T09:18:06.188Z,102533.22
2023-02-08T09:21:13.682Z,102521.80
2023-02-08T09:24:19.487Z,102514.20
2023-02-08T09:27:25.572Z,102526.59
2023-02-08T09:30:30.783Z,102506.77
2023-02-08T09:33:37.392Z,102519.96
2023-02-08T09:36:49.085Z,102523.62
2023-02-08T09:39:55.271Z,102507.55
2023-02-08T09:43:05.083Z,102513.41
2023-02-08T09:46:36.753Z,102528.97
2023-02-08T09:49:48.811Z,102516.30
2023-02-08T09:53:09.276Z,102522.33
2023-02-08T09:56:17.114Z,102520.70
2023-02-08T09:59:38.448Z,102520.48
2023-02-08T10:02:46.198Z,102503.92
2023-02-08T10:05:51.721Z,102522.58
2023-02-08T10:08:58.044Z,102524.05
2023-02-08T10:12:30.863Z,102516.48
2023-02-08T10:15:49.122Z,102514.16
2023-02-08T10:18:53.414Z,102518.84
2023-02-08T10:21:52.757Z,102520.81
2023-02-08T10:25:30.574Z,102528.69
2023-02-08T10:28:34.300Z,102534.05
2023-02-08T10:31:51.556Z,102533.20
2023-02-08T10:35:11.270Z,102532.78
2023-02-08T10:38:16.236Z,102523.34
2023-02-08T10:41:23.076Z,102541.39
2023-02-08T10:44:51.388Z,102526.66
2023-02-08T10:48:09.489Z,102518.94
2023-02-08T10:51:15.126Z,102522.57
2023-02-08T10:54:20.548Z,102516.50
2023-02-08T10:57:30.345Z,102508.98
2023-02-08T11:00:39.316Z,102501.78
2023-02-08T11:03:46.604Z,102490.90
2023-02-08T11:06:56.774Z,102498.09
2023-02-08T11:10:03.471Z,102505.16
2023-02-08T11:13:36.442Z,102503.34
2023-02-08T11:16:42.587Z,102494.00
2023-02-08T11:19:54.109Z,102494.24
2023-02-08T11:23:00.064Z,102490.92
2023-02-08T11:26:06.076Z,102486.52
2023-02-08T11:29:33.755Z,102487.83
2023-02-08T11:32:42.177Z,102501.12
2023-02-08T11:35:48.252Z,102493.33
2023-02-08T11:38:49.983Z,102491.56
2023-02-08T11:41:58.651Z,102503.38
2023-02-08T11:45:03.818Z,102490.20
2023-02-08T11:48:10.879Z,102490.75
2023-02-08T11:51:18.041Z,102486.23
2023-02-08T11:54:27.317Z,102499.52
2023-02-08T11:57:35.670Z,102499.27
2023-02-08T12:00:43.215Z,102489.38
2023-02-08T12:03:57.544Z,102495.95
2023-02-08T12:07:13.735Z,102504.30
2023-02-08T12:10:35.716Z,102493.38
2023-02-08T12:14:13.978Z,102490.54
2023-02-08T12:17:50.515Z,102496.42
2023-02-08T12:21:03.157Z,102501.28
2023-02-08T12:24:22.646Z,102504.03
2023-02-08T12:27:42.242Z,102508.77
2023-02-08T12:31:01.696Z,102511.94
2023-02-08T12:34:26.300Z,102505.67
2023-02-08T12:38:06.023Z,102516.33
2023-02-08T12:41:32.367Z,102522.09
2023-02-08T12:45:22.831Z,102524.44
2023-02-08T12:48:57.749Z,102524.58
2023-02-08T12:52:30.635Z,102526.79
2023-02-08T12:55:47.908Z,102533.38
2023-02-08T12:59:13.825Z,102527.70
2023-02-08T13:02:29.764Z,102540.25
2023-02-08T13:05:36.148Z,102535.77
2023-02-08T13:08:57.037Z,102528.11
2023-02-08T13:12:08.649Z,102530.74
2023-02-08T13:15:35.892Z,102527.64
2023-02-08T13:18:52.014Z,102516.36
2023-02-08T13:21:57.617Z,102521.75
2023-02-08T13:25:08.012Z,102518.25
2023-02-08T13:28:21.934Z,102518.38
2023-02-08T13:31:31.141Z,102514.16
2023-02-08T13:34:54.264Z,102534.01
2023-02-08T13:38:06.458Z,102520.81
2023-02-08T13:41:24.351Z,102531.86
2023-02-08T13:44:37.298Z,102528.40
2023-02-08T13:47:48.575Z,102532.64
2023-02-08T13:51:04.429Z,102533.34
2023-02-08T13:54:20.156Z,102525.05
2023-02-08T13:58:07.782Z,102525.49
2023-02-08T14:01:16.380Z,102538.26
2023-02-08T14:04:30.002Z,102534.26
2023-02-08T14:07:43.158Z,102528.75
2023-02-08T14:10:55.424Z,102534.86
2023-02-08T14:14:10.685Z,102518.09
2023-02-08T14:17:38.893Z,102533.31
2023-02-08T14:20:51.192Z,102539.09
2023-02-08T14:23:57.712Z,102530.86
2023-02-08T14:27:02.335Z,102540.72
2023-02-08T14:30:32.367Z,102542.67
2023-02-08T14:33:54.733Z,102535.45
2023-02-08T14:37:00.592Z,102534.05
2023-02-08T14:40:05.959Z,102542.33
2023-02-08T14:43:21.368Z,102544.60
2023-02-08T14:46:53.059Z,102546.47
2023-02-08T14:49:59.376Z,102541.73
2023-02-08T14:53:35.894Z,102544.53
2023-02-08T14:56:50.745Z,102563.83
2023-02-08T14:59:50.291Z,102562.13
2023-02-08T15:02:43.946Z,102550.48
2023-02-08T15:05:52.484Z,102552.41
2023-02-08T15:09:00.105Z,102557.05
2023-02-08T15:12:18.668Z,102551.92
2023-02-08T15:15:44.898Z,102553.49
2023-02-08T15:18:51.518Z,102550.30
2023-02-08T15:21:58.000Z,102563.92
2023-02-08T15:25:12.439Z,102555.59
2023-02-08T15:28:33.085Z,102558.11
2023-02-08T15:31:47.160Z,102577.83
2023-02-08T15:34:54.924Z,102564.59
2023-02-08T15:38:01.830Z,102570.48
2023-02-08T15:41:26.416Z,102565.92
2023-02-08T15:44:44.225Z,102570.06
2023-02-08T15:47:51.601Z,102580.86
2023-02-08T15:50:57.586Z,102582.05
2023-02-08T15:54:08.864Z,102585.20
2023-02-08T15:57:20.797Z,102572.25
2023-02-08T16:00:39.841Z,102578.41
2023-02-08T16:03:45.994Z,102585.77
2023-02-08T16:06:55.278Z,102585.82
2023-02-08T16:10:02.286Z,102594.79
2023-02-08T16:13:13.644Z,102603.44
2023-02-08T16:16:40.730Z,102601.53
2023-02-08T16:19:47.960Z,102602.45
2023-02-08T16:22:53.742Z,102604.98
2023-02-08T16:26:00.124Z,102596.73
2023-02-08T16:29:13.490Z,102615.02
2023-02-08T16:32:21.543Z,102610.27
2023-02-08T16:35:29.504Z,102602.75
2023-02-08T16:38:37.317Z,102613.88
2023-02-08T16:41:43.790Z,102616.00
2023-02-08T16:44:51.078Z,102628.43
2023-02-08T16:48:17.514Z,102623.85
2023-02-08T16:51:12.730Z,102628.27
2023-02-08T16:54:20.315Z,102619.16
2023-02-08T16:57:26.683Z,102618.36
2023-02-08T17:00:44.727Z,102610.98
2023-02-08T17:03:50.943Z,102617.77
2023-02-08T17:06:58.793Z,102609.67
2023-02-08T17:10:04.222Z,102604.52
2023-02-08T17:13:24.276Z,102597.09
2023-02-08T17:16:16.016Z,102597.93
2023-02-08T17:19:21.704Z,102588.91
2023-02-08T17:22:27.900Z,102596.12
2023-02-08T17:25:32.972Z,102600.05
2023-02-08T17:28:41.122Z,102599.31
2023-02-08T17:31:48.198Z,102604.94
2023-02-08T17:34:54.233Z,102600.04
2023-02-08T17:38:02.282Z,102604.84
2023-02-08T17:41:01.491Z,102616.05
2023-02-08T17:44:08.420Z,102619.92
2023-02-08T17:47:14.088Z,102625.19
2023-02-08T17:50:20.725Z,102636.95
2023-02-08T17:53:26.874Z,102635.97
2023-02-08T17:56:41.288Z,102644.96
2023-02-08T17:59:46.156Z,102640.41
2023-02-08T18:02:53.157Z,102641.77
2023-02-08T18:05:58.853Z,102638.36
2023-02-08T18:09:11.064Z,102631.97
2023-02-08T18:12:17.478Z,102629.25
2023-02-08T18:15:27.147Z,102633.09
2023-02-08T18:18:32.369Z,102640.16
2023-02-08T18:21:39.883Z,102631.80
2023-02-08T18:24:46.345Z,102634.30
2023-02-08T18:27:52.332Z,102626.83
2023-02-08T18:30:58.608Z,102618.30
2023-02-08T18:34:04.732Z,102617.09
2023-02-08T18:37:10.177Z,102614.45
2023-02-08T18:40:16.276Z,102621.43
2023-02-08T18:43:22.369Z,102620.56
2023-02-08T18:46:30.197Z,102622.39
2023-02-08T18:49:36.698Z,102628.12
2023-02-08T18:52:42.220Z,102625.20
2023-02-08T18:55:34.476Z,102631.05
2023-02-08T18:58:40.884Z,102630.63
2023-02-08T19:01:46.925Z,102632.42
2023-02-08T19:04:54.093Z,102642.82
2023-02-08T19:08:00.251Z,102647.37
2023-02-08T19:11:06.989Z,102643.80
2023-02-08T19:14:14.022Z,102638.73
2023-02-08T19:17:18.972Z,102650.14
2023-02-08T19:20:26.127Z,102653.86
2023-02-08T19:23:32.216Z,102647.92
2023-02-08T19:26:40.456Z,102647.41
2023-02-08T19:29:45.478Z,102647.25
2023-02-08T19:32:51.616Z,102641.56
2023-02-08T19:35:58.438Z,102646.63
2023-02-08T19:39:04.909Z,102625.22
2023-02-08T19:42:10.475Z,102632.09
2023-02-08T19:45:15.586Z,102625.78
2023-02-08T19:48:16.179Z,102639.48
2023-02-08T19:51:22.164Z,102646.14
2023-02-08T19:54:29.584Z,102645.03
2023-02-08T19:57:35.274Z,102646.77
2023-02-08T20:00:34.816Z,102641.98
2023-02-08T20:03:41.021Z,102649.97
2023-02-08T20:06:52.367Z,102648.77
2023-02-08T20:09:58.034Z,102635.14
2023-02-08T20:13:03.493Z,102640.94
2023-02-08T20:16:12.090Z,102640.66
2023-02-08T20:19:19.711Z,102636.78
2023-02-08T20:22:26.021Z,102631.93
2023-02-08T20:25:31.489Z,102633.91
2023-02-08T20:28:37.142Z,102632.03
2023-02-08T20:31:45.428Z,102629.16
2023-02-08T20:34:59.372Z,102635.70
2023-02-08T20:38:00.040Z,102628.52
2023-02-08T20:41:06.457Z,102632.25
2023-02-08T20:44:11.740Z,102637.72
2023-02-08T20:47:18.423Z,102639.35
2023-02-08T20:50:24.857Z,102624.09
2023-02-08T20:53:30.949Z,102630.56
2023-02-08T20:56:42.762Z,102647.23
2023-02-08T20:59:47.766Z,102652.09
2023-02-08T21:02:53.639Z,102650.22
2023-02-08T21:06:00.058Z,102652.91
2023-02-08T21:09:06.178Z,102637.47
2023-02-08T21:12:12.920Z,102644.48
2023-02-08T21:15:18.385Z,102642.88
2023-02-08T21:18:24.200Z,102646.48
2023-02-08T21:21:31.162Z,102647.42
2023-02-08T21:24:37.845Z,102645.55
2023-02-08T21:27:43.674Z,102644.59
2023-02-08T21:30:49.698Z,102632.31
2023-02-08T21:33:56.892Z,102641.44
2023-02-08T21:37:03.229Z,102635.56
2023-02-08T21:40:02.063Z,102631.41
2023-02-08T21:43:08.157Z,102632.08
2023-02-08T21:46:18.674Z,102640.39
2023-02-08T21:49:41.811Z,102634.20
2023-02-08T21:53:04.936Z,102629.26
2023-02-08T21:56:10.370Z,102630.11
2023-02-08T21:59:16.226Z,102622.73
2023-02-08T22:02:34.929Z,102627.73
2023-02-08T22:05:57.557Z,102624.44
2023-02-08T22:09:03.814Z,102623.67
2023-02-08T22:12:08.732Z,102626.86
2023-02-08T22:15:14.331Z,102624.46
2023-02-08T22:18:20.184Z,102611.02
2023-02-08T22:21:24.694Z,102612.03
2023-02-08T22:24:29.864Z,102609.20
2023-02-08T22:27:36.178Z,102606.84
2023-02-08T22:30:43.786Z,102611.39
2023-02-08T22:33:49.466Z,102603.01
2023-02-08T22:36:55.450Z,102599.49
2023-02-08T22:40:00.223Z,102595.44
2023-02-08T22:43:06.362Z,102593.70
2023-02-08T22:46:15.312Z,102589.37
2023-02-08T22:49:20.402Z,102592.06
2023-02-08T22:52:26.062Z,102594.26
2023-02-08T22:55:33.662Z,102590.19
2023-02-08T22:58:39.590Z,102584.77
2023-02-08T23:01:44.733Z,102588.40
2023-02-08T23:04:51.335Z,102592.25
2023-02-08T23:07:57.805Z,102589.47
2023-02-08T23:11:03.161Z,102586.64
2023-02-08T23:14:09.462Z,102583.12
2023-02-08T23:17:15.670Z,102590.19
2023-02-08T23:20:20.742Z,102590.27
2023-02-08T23:23:26.372Z,102587.45
2023-02-08T23:26:34.503Z,102588.78
2023-02-08T23:29:40.657Z,102586.97
2023-02-08T23:32:46.563Z,102594.41
2023-02-08T23:35:56.298Z,102592.34
2023-02-08T23:39:02.442Z,102582.44
2023-02-08T23:42:10.669Z,102581.92
2023-02-08T23:45:17.014Z,102586.09
2023-02-08T23:48:22.549Z,102587.43
2023-02-08T23:51:22.447Z,102582.58
2023-02-08T23:54:15.571Z,102584.73
2023-02-08T23:57:14.864Z,102578.06
